Time;durP1;ratioP1;P1;durP2;ratioP2;P2;SDS_P1;SDS_P2;PMS_P1;PMS_P2;Temp;Humidity;BMP_temperature;BMP_pressure;BME280_temperature;BME280_humidity;BME280_pressure;Samples;Min_cycle;Max_cycle;Signal;HPM_P1;HPM_P2
2023/11/11 00:00:31;;;;;;;8.20;0.80;;;;;;;;;;5048762;28;20064;-60
2023/11/11 00:02:57;;;;;;;8.32;0.95;;;;;;;;;;5048350;28;20166;-59
2023/11/11 00:05:24;;;;;;;3.58;0.77;;;;;;;;;;5044898;28;20049;-59
2023/11/11 00:07:51;;;;;;;4.78;0.70;;;;;;;;;;5035797;28;20037;-59
2023/11/11 00:10:17;;;;;;;5.55;1.08;;;;;;;;;;5039332;28;20055;-59
2023/11/11 00:12:44;;;;;;;4.32;0.82;;;;;;;;;;5041249;28;20052;-59
2023/11/11 00:15:10;;;;;;;7.18;1.15;;;;;;;;;;5036734;28;20386;-59
2023/11/11 00:17:37;;;;;;;3.33;0.93;;;;;;;;;;5049278;28;20112;-59
2023/11/11 00:20:05;;;;;;;3.53;0.68;;;;;;;;;;5042672;28;20083;-59
2023/11/11 00:22:31;;;;;;;4.97;0.88;;;;;;;;;;5042894;28;20041;-59
2023/11/11 00:24:58;;;;;;;2.58;1.10;;;;;;;;;;5050513;28;20496;-59
2023/11/11 00:27:27;;;;;;;4.47;1.30;;;;;;;;;;5046880;28;20040;-59
2023/11/11 00:29:56;;;;;;;4.00;0.82;;;;;;;;;;5043399;28;20125;-59
2023/11/11 00:32:22;;;;;;;5.95;1.00;;;;;;;;;;5047767;28;20044;-60
2023/11/11 00:34:48;;;;;;;5.55;1.00;;;;;;;;;;5048673;28;20159;-60
2023/11/11 00:37:15;;;;;;;3.03;0.63;;;;;;;;;;5047795;28;20460;-60
2023/11/11 00:39:41;;;;;;;7.13;1.15;;;;;;;;;;5046363;28;20062;-59
2023/11/11 00:42:07;;;;;;;4.07;0.70;;;;;;;;;;5044723;28;20064;-59
2023/11/11 00:44:35;;;;;;;5.10;0.98;;;;;;;;;;5048716;28;20040;-59
2023/11/11 00:47:02;;;;;;;4.70;0.88;;;;;;;;;;5048135;28;20478;-59
2023/11/11 00:49:28;;;;;;;6.80;0.73;;;;;;;;;;5045808;28;20059;-60
2023/11/11 00:51:55;;;;;;;11.02;0.90;;;;;;;;;;5041713;28;20494;-59
2023/11/11 00:54:21;;;;;;;7.30;0.90;;;;;;;;;;5047269;28;20044;-60
2023/11/11 00:56:47;;;;;;;6.03;0.80;;;;;;;;;;5047555;28;20052;-59
2023/11/11 00:59:13;;;;;;;6.65;1.02;;;;;;;;;;5031569;28;20057;-59
2023/11/11 01:01:39;;;;;;;5.18;0.75;;;;;;;;;;5048634;28;21513;-59
2023/11/11 01:04:06;;;;;;;8.13;1.15;;;;;;;;;;5047231;28;20128;-59
2023/11/11 01:06:32;;;;;;;5.82;0.80;;;;;;;;;;5048551;28;20409;-59
2023/11/11 01:08:58;;;;;;;5.55;1.00;;;;;;;;;;5043327;28;20048;-59
2023/11/11 01:11:24;;;;;;;6.93;1.27;;;;;;;;;;5039642;28;20047;-59
2023/11/11 01:13:50;;;;;;;6.97;1.30;;;;;;;;;;5043365;28;20110;-59
2023/11/11 01:16:16;;;;;;;5.53;0.90;;;;;;;;;;5046351;28;20438;-59
2023/11/11 01:18:43;;;;;;;8.73;1.30;;;;;;;;;;5047185;28;20045;-59
2023/11/11 01:21:09;;;;;;;5.05;1.00;;;;;;;;;;5047694;28;20079;-59
2023/11/11 01:23:36;;;;;;;11.73;1.30;;;;;;;;;;5048746;28;20036;-59
2023/11/11 01:26:02;;;;;;;8.60;1.10;;;;;;;;;;5045404;28;20052;-59
2023/11/11 01:28:29;;;;;;;3.88;0.70;;;;;;;;;;5048838;28;20105;-60
2023/11/11 01:30:56;;;;;;;9.48;1.20;;;;;;;;;;5046950;28;20227;-60
2023/11/11 01:33:22;;;;;;;6.00;0.90;;;;;;;;;;5054368;28;20109;-59
2023/11/11 01:35:50;;;;;;;8.77;1.30;;;;;;;;;;5055515;28;20166;-60
2023/11/11 01:38:17;;;;;;;5.30;1.30;;;;;;;;;;5052780;28;20040;-60
2023/11/11 01:40:43;;;;;;;5.95;1.00;;;;;;;;;;5051148;28;20122;-59
2023/11/11 01:43:13;;;;;;;5.53;1.08;;;;;;;;;;5046743;28;20044;-60
2023/11/11 01:45:43;;;;;;;11.65;1.05;;;;;;;;;;5051579;28;20539;-60
2023/11/11 01:48:10;;;;;;;8.50;1.80;;;;;;;;;;5054789;28;20044;-59
2023/11/11 01:50:37;;;;;;;8.95;1.30;;;;;;;;;;5053689;28;20687;-59
2023/11/11 01:53:05;;;;;;;8.63;1.70;;;;;;;;;;5039602;28;20048;-59
2023/11/11 01:55:32;;;;;;;10.52;1.73;;;;;;;;;;5046794;28;20052;-60
2023/11/11 01:57:58;;;;;;;6.38;1.20;;;;;;;;;;5054815;28;20416;-60
2023/11/11 02:00:26;;;;;;;7.40;0.90;;;;;;;;;;5048909;28;20081;-60
2023/11/11 02:02:53;;;;;;;11.65;1.23;;;;;;;;;;5053827;28;20042;-59
2023/11/11 02:05:20;;;;;;;7.03;1.15;;;;;;;;;;5050324;28;20044;-60
2023/11/11 02:07:46;;;;;;;3.33;0.50;;;;;;;;;;5047028;28;20045;-59
2023/11/11 02:10:13;;;;;;;4.45;0.60;;;;;;;;;;5046862;28;20041;-60
2023/11/11 02:12:39;;;;;;;4.43;0.80;;;;;;;;;;5052602;28;20061;-60
2023/11/11 02:15:07;;;;;;;4.03;0.60;;;;;;;;;;5047682;28;20392;-60
2023/11/11 02:17:33;;;;;;;5.20;0.50;;;;;;;;;;5043395;28;20049;-60
2023/11/11 02:20:00;;;;;;;3.80;0.43;;;;;;;;;;5053358;28;20044;-60
2023/11/11 02:22:26;;;;;;;3.78;0.90;;;;;;;;;;5048073;28;20447;-60
2023/11/11 02:24:53;;;;;;;4.65;0.88;;;;;;;;;;5035731;28;20041;-60
2023/11/11 02:27:19;;;;;;;5.28;0.65;;;;;;;;;;5050595;28;20036;-60
2023/11/11 02:29:46;;;;;;;4.88;0.75;;;;;;;;;;5052575;28;20049;-59
2023/11/11 02:32:12;;;;;;;3.85;0.80;;;;;;;;;;5054652;28;20056;-59
2023/11/11 02:34:39;;;;;;;4.65;0.98;;;;;;;;;;5050259;28;20474;-60
2023/11/11 02:37:05;;;;;;;6.55;0.93;;;;;;;;;;5052171;28;20123;-60
2023/11/11 02:39:31;;;;;;;3.78;1.10;;;;;;;;;;5036398;28;20094;-59
2023/11/11 02:41:57;;;;;;;4.65;0.60;;;;;;;;;;5063261;28;20131;-59
2023/11/11 02:44:24;;;;;;;2.53;0.70;;;;;;;;;;5056148;28;20139;-60
2023/11/11 02:46:51;;;;;;;1.90;0.43;;;;;;;;;;5045092;28;20121;-60
2023/11/11 02:49:18;;;;;;;6.00;2.15;;;;;;;;;;5050980;28;20072;-59
2023/11/11 02:51:45;;;;;;;4.97;0.40;;;;;;;;;;5046433;28;20128;-59
2023/11/11 02:54:11;;;;;;;2.70;0.52;;;;;;;;;;5056657;28;20076;-60
2023/11/11 02:56:37;;;;;;;1.42;0.50;;;;;;;;;;5050098;28;20099;-60
2023/11/11 02:59:03;;;;;;;3.83;0.40;;;;;;;;;;5052742;28;20128;-59
2023/11/11 03:01:36;;;;;;;1.95;0.50;;;;;;;;;;5051632;28;20512;-60
2023/11/11 03:04:02;;;;;;;2.15;0.60;;;;;;;;;;5052131;28;20115;-59
2023/11/11 03:06:28;;;;;;;1.92;0.40;;;;;;;;;;5060170;28;20117;-60
2023/11/11 03:08:54;;;;;;;3.25;0.40;;;;;;;;;;5050787;28;20037;-60
2023/11/11 03:11:21;;;;;;;5.85;0.90;;;;;;;;;;5050893;28;20041;-60
2023/11/11 03:13:48;;;;;;;2.15;0.55;;;;;;;;;;5054644;28;20059;-60
2023/11/11 03:16:14;;;;;;;5.53;0.63;;;;;;;;;;5056077;28;20097;-59
2023/11/11 03:18:41;;;;;;;3.60;0.52;;;;;;;;;;5052726;28;20044;-59
2023/11/11 03:21:07;;;;;;;2.50;0.40;;;;;;;;;;5050229;28;20427;-59
2023/11/11 03:23:33;;;;;;;8.10;0.77;;;;;;;;;;5040388;28;20486;-59
2023/11/11 03:25:59;;;;;;;6.18;0.77;;;;;;;;;;5054910;28;20051;-60
2023/11/11 03:28:25;;;;;;;3.08;0.45;;;;;;;;;;5058530;28;20162;-60
2023/11/11 03:30:52;;;;;;;2.40;0.60;;;;;;;;;;5053689;28;20516;-59
2023/11/11 03:33:18;;;;;;;8.52;1.25;;;;;;;;;;5048819;28;20105;-59
2023/11/11 03:35:44;;;;;;;5.80;0.63;;;;;;;;;;5050030;28;20037;-60
2023/11/11 03:38:10;;;;;;;2.33;0.45;;;;;;;;;;5054176;28;20132;-59
2023/11/11 03:40:36;;;;;;;6.75;0.73;;;;;;;;;;5057931;28;20052;-60
2023/11/11 03:43:03;;;;;;;8.90;0.60;;;;;;;;;;5061054;28;20159;-60
2023/11/11 03:45:29;;;;;;;5.88;0.70;;;;;;;;;;5057108;28;20460;-59
2023/11/11 03:47:55;;;;;;;7.07;0.90;;;;;;;;;;5045084;28;20369;-59
2023/11/11 03:50:21;;;;;;;4.85;0.70;;;;;;;;;;5011120;28;20512;-60
2023/11/11 03:52:47;;;;;;;15.77;1.50;;;;;;;;;;5056531;28;20045;-59
2023/11/11 03:55:13;;;;;;;5.65;0.80;;;;;;;;;;5068093;28;20431;-59
2023/11/11 03:57:40;;;;;;;9.23;0.90;;;;;;;;;;5051516;28;20071;-60
2023/11/11 04:00:10;;;;;;;6.57;0.88;;;;;;;;;;5053570;28;20053;-60
2023/11/11 04:02:36;;;;;;;6.20;0.75;;;;;;;;;;5054583;28;20125;-60
2023/11/11 04:05:02;;;;;;;7.13;0.88;;;;;;;;;;5050244;28;20090;-60
2023/11/11 04:07:28;;;;;;;7.93;0.85;;;;;;;;;;5043601;28;20043;-60
2023/11/11 04:09:55;;;;;;;4.07;0.70;;;;;;;;;;5053004;28;20154;-59
2023/11/11 04:12:22;;;;;;;5.68;0.70;;;;;;;;;;5048406;28;20060;-60
2023/11/11 04:14:48;;;;;;;9.15;0.70;;;;;;;;;;5049114;28;20051;-60
2023/11/11 04:17:15;;;;;;;6.13;0.50;;;;;;;;;;5046063;28;20045;-60
2023/11/11 04:19:41;;;;;;;4.93;0.80;;;;;;;;;;5027320;28;20597;-59
2023/11/11 04:22:07;;;;;;;6.10;1.33;;;;;;;;;;5046981;28;20049;-59
2023/11/11 04:24:34;;;;;;;6.35;1.23;;;;;;;;;;5054732;28;20469;-59
2023/11/11 04:27:02;;;;;;;6.03;0.60;;;;;;;;;;5057280;28;20106;-60
2023/11/11 04:29:28;;;;;;;7.57;1.00;;;;;;;;;;5056927;28;20064;-60
2023/11/11 04:31:54;;;;;;;4.40;1.55;;;;;;;;;;5051188;28;21247;-60
2023/11/11 04:34:20;;;;;;;8.85;0.98;;;;;;;;;;5048595;28;20071;-60
2023/11/11 04:36:47;;;;;;;9.48;1.13;;;;;;;;;;5055854;28;20095;-60
2023/11/11 04:39:14;;;;;;;11.82;2.03;;;;;;;;;;5050112;28;20120;-60
2023/11/11 04:41:42;;;;;;;10.68;1.05;;;;;;;;;;5045569;28;20093;-60
2023/11/11 04:44:09;;;;;;;3.33;1.30;;;;;;;;;;5030903;28;20132;-59
2023/11/11 04:46:35;;;;;;;3.83;0.70;;;;;;;;;;5055263;28;20104;-60
2023/11/11 04:49:01;;;;;;;8.02;1.00;;;;;;;;;;5049334;28;20048;-59
2023/11/11 04:51:27;;;;;;;6.10;0.95;;;;;;;;;;5055562;28;20128;-60
2023/11/11 04:53:53;;;;;;;12.27;1.98;;;;;;;;;;5059847;28;20496;-60
2023/11/11 04:56:19;;;;;;;2.67;0.50;;;;;;;;;;5051087;28;20377;-60
2023/11/11 04:58:47;;;;;;;3.22;0.40;;;;;;;;;;5054090;28;20540;-60
2023/11/11 05:01:14;;;;;;;3.97;0.40;;;;;;;;;;5052380;28;20453;-60
2023/11/11 05:03:40;;;;;;;1.45;0.30;;;;;;;;;;5060464;28;20117;-60
2023/11/11 05:06:07;;;;;;;1.42;0.45;;;;;;;;;;5046528;28;20198;-60
2023/11/11 05:08:33;;;;;;;1.15;0.38;;;;;;;;;;5049519;28;20048;-60
2023/11/11 05:10:59;;;;;;;3.78;0.47;;;;;;;;;;5048272;28;20041;-60
2023/11/11 05:13:26;;;;;;;1.55;0.32;;;;;;;;;;5052997;28;20120;-60
2023/11/11 05:15:59;;;;;;;1.63;0.50;;;;;;;;;;5043837;28;20055;-60
2023/11/11 05:18:27;;;;;;;4.93;0.90;;;;;;;;;;5051874;28;20045;-60
2023/11/11 05:20:54;;;;;;;4.95;0.55;;;;;;;;;;5044380;28;20500;-60
2023/11/11 05:23:20;;;;;;;5.07;0.60;;;;;;;;;;5042259;28;20044;-59
2023/11/11 05:25:46;;;;;;;7.80;0.70;;;;;;;;;;5048692;28;20045;-60
2023/11/11 05:28:13;;;;;;;4.25;1.02;;;;;;;;;;5050543;28;20111;-60
2023/11/11 05:30:40;;;;;;;6.97;1.00;;;;;;;;;;5060869;28;20057;-60
2023/11/11 05:33:06;;;;;;;8.25;0.85;;;;;;;;;;5054087;28;20041;-60
2023/11/11 05:35:32;;;;;;;6.97;0.70;;;;;;;;;;5050335;28;20052;-60
2023/11/11 05:37:59;;;;;;;7.60;0.80;;;;;;;;;;5056408;28;20037;-60
2023/11/11 05:40:26;;;;;;;2.72;0.60;;;;;;;;;;5050122;28;20045;-60
2023/11/11 05:42:52;;;;;;;13.57;1.45;;;;;;;;;;5050958;28;20040;-60
2023/11/11 05:45:18;;;;;;;3.40;0.70;;;;;;;;;;5044508;28;20056;-60
2023/11/11 05:47:45;;;;;;;5.35;0.80;;;;;;;;;;5048621;28;20048;-60
2023/11/11 05:50:11;;;;;;;9.48;1.02;;;;;;;;;;5055357;28;20044;-60
2023/11/11 05:52:38;;;;;;;8.50;1.05;;;;;;;;;;5050977;28;20124;-60
2023/11/11 05:55:06;;;;;;;10.93;0.98;;;;;;;;;;5048433;28;20040;-59
2023/11/11 05:57:32;;;;;;;10.52;1.10;;;;;;;;;;5049322;28;20171;-60
2023/11/11 05:59:58;;;;;;;6.22;0.90;;;;;;;;;;5043867;28;20056;-59
2023/11/11 06:02:25;;;;;;;6.90;1.02;;;;;;;;;;5051044;28;20045;-60
2023/11/11 06:04:51;;;;;;;9.98;1.15;;;;;;;;;;5066846;28;20049;-59
2023/11/11 06:07:17;;;;;;;9.60;1.00;;;;;;;;;;5073679;28;20453;-59
2023/11/11 06:09:43;;;;;;;9.38;0.98;;;;;;;;;;5072063;28;20037;-60
2023/11/11 06:12:09;;;;;;;8.85;0.70;;;;;;;;;;5056644;28;20044;-59
2023/11/11 06:14:36;;;;;;;8.38;1.25;;;;;;;;;;5058200;28;20095;-59
2023/11/11 06:17:02;;;;;;;7.40;0.90;;;;;;;;;;5044908;28;20076;-59
2023/11/11 06:19:28;;;;;;;4.18;1.25;;;;;;;;;;5047530;28;20418;-60
2023/11/11 06:21:54;;;;;;;3.47;0.65;;;;;;;;;;5050064;28;20132;-59
2023/11/11 06:24:20;;;;;;;2.35;0.75;;;;;;;;;;5052101;28;20599;-59
2023/11/11 06:26:47;;;;;;;2.60;0.60;;;;;;;;;;5061628;28;20485;-59
2023/11/11 06:29:14;;;;;;;3.08;0.70;;;;;;;;;;5069364;28;20110;-59
2023/11/11 06:31:40;;;;;;;8.55;1.00;;;;;;;;;;5041976;28;20048;-59
2023/11/11 06:34:06;;;;;;;8.43;0.80;;;;;;;;;;5048897;28;20032;-59
2023/11/11 06:36:34;;;;;;;4.85;0.65;;;;;;;;;;5048362;28;20048;-59
2023/11/11 06:39:01;;;;;;;5.15;0.82;;;;;;;;;;5048133;28;20053;-60
2023/11/11 06:41:27;;;;;;;5.82;0.75;;;;;;;;;;5050213;28;20465;-60
2023/11/11 06:43:53;;;;;;;4.55;0.90;;;;;;;;;;5052758;28;20091;-59
2023/11/11 06:46:19;;;;;;;5.57;1.02;;;;;;;;;;5051201;28;20045;-59
2023/11/11 06:48:45;;;;;;;5.32;0.73;;;;;;;;;;5053076;28;20128;-59
2023/11/11 06:51:12;;;;;;;3.33;0.60;;;;;;;;;;5053071;28;20037;-59
2023/11/11 06:53:39;;;;;;;7.88;0.80;;;;;;;;;;5051351;28;20481;-59
2023/11/11 06:56:06;;;;;;;7.45;1.23;;;;;;;;;;5049732;28;20496;-59
2023/11/11 06:58:32;;;;;;;13.63;0.93;;;;;;;;;;5053245;28;20053;-59
2023/11/11 07:00:58;;;;;;;9.98;1.05;;;;;;;;;;5050537;28;20037;-58
2023/11/11 07:03:25;;;;;;;7.53;0.60;;;;;;;;;;5046732;28;20041;-58
2023/11/11 07:05:51;;;;;;;5.47;1.10;;;;;;;;;;5033291;28;20092;-60
2023/11/11 07:08:18;;;;;;;7.03;0.90;;;;;;;;;;5052572;28;20079;-59
2023/11/11 07:10:44;;;;;;;5.78;1.08;;;;;;;;;;5052067;28;20187;-60
2023/11/11 07:13:10;;;;;;;8.27;0.73;;;;;;;;;;5048123;28;20120;-60
2023/11/11 07:15:36;;;;;;;6.70;0.95;;;;;;;;;;5047630;28;20049;-59
2023/11/11 07:18:07;;;;;;;3.80;0.88;;;;;;;;;;5047901;28;20045;-59
2023/11/11 07:20:33;;;;;;;4.65;0.60;;;;;;;;;;5051519;28;20054;-60
2023/11/11 07:22:59;;;;;;;11.48;1.83;;;;;;;;;;5049826;28;20040;-61
2023/11/11 07:25:26;;;;;;;2.47;0.50;;;;;;;;;;5047068;28;20051;-61
2023/11/11 07:27:53;;;;;;;6.93;0.73;;;;;;;;;;5049276;28;20060;-60
2023/11/11 07:30:19;;;;;;;6.85;1.00;;;;;;;;;;5042437;28;20115;-61
2023/11/11 07:32:45;;;;;;;6.35;0.80;;;;;;;;;;5040016;28;20128;-60
2023/11/11 07:35:12;;;;;;;6.97;0.98;;;;;;;;;;5047223;28;20041;-60
2023/11/11 07:37:39;;;;;;;4.03;0.90;;;;;;;;;;5044041;28;20037;-61
2023/11/11 07:40:08;;;;;;;5.93;0.98;;;;;;;;;;5051636;28;20052;-61
2023/11/11 07:42:34;;;;;;;6.95;1.13;;;;;;;;;;5052606;28;20048;-61
2023/11/11 07:45:03;;;;;;;11.27;1.45;;;;;;;;;;5063366;28;20048;-60
2023/11/11 07:47:30;;;;;;;12.02;1.20;;;;;;;;;;5067077;28;20111;-60
2023/11/11 07:49:56;;;;;;;6.50;1.40;;;;;;;;;;5061826;28;20052;-61
2023/11/11 07:52:23;;;;;;;4.22;0.82;;;;;;;;;;5071838;28;20094;-61
2023/11/11 07:54:49;;;;;;;6.47;1.58;;;;;;;;;;5054695;28;20395;-61
2023/11/11 07:57:15;;;;;;;11.35;1.58;;;;;;;;;;5062419;28;20097;-61
2023/11/11 07:59:44;;;;;;;5.65;0.95;;;;;;;;;;5069316;28;20452;-61
2023/11/11 08:02:14;;;;;;;4.22;0.98;;;;;;;;;;5047066;28;20050;-62
2023/11/11 08:04:41;;;;;;;3.47;1.13;;;;;;;;;;5048623;28;20466;-61
2023/11/11 08:07:10;;;;;;;10.23;1.52;;;;;;;;;;5046918;28;20055;-61
2023/11/11 08:09:36;;;;;;;10.93;1.58;;;;;;;;;;5022949;28;20337;-61
2023/11/11 08:12:04;;;;;;;10.65;1.20;;;;;;;;;;5049098;28;20041;-61
2023/11/11 08:14:31;;;;;;;11.32;1.40;;;;;;;;;;5051631;28;20079;-61
2023/11/11 08:16:58;;;;;;;15.60;1.65;;;;;;;;;;5051583;28;20137;-61
2023/11/11 08:19:24;;;;;;;8.77;1.45;;;;;;;;;;5050584;28;20086;-61
2023/11/11 08:21:50;;;;;;;10.07;1.33;;;;;;;;;;5051368;28;20044;-61
2023/11/11 08:24:17;;;;;;;15.60;1.95;;;;;;;;;;5049539;28;20059;-61
2023/11/11 08:26:44;;;;;;;10.55;1.33;;;;;;;;;;5051209;28;20052;-61
2023/11/11 08:29:10;;;;;;;10.40;1.52;;;;;;;;;;5051267;28;20107;-61
2023/11/11 08:31:39;;;;;;;11.27;1.40;;;;;;;;;;5051398;28;20036;-61
2023/11/11 08:34:06;;;;;;;8.75;1.30;;;;;;;;;;5052768;28;20124;-62
2023/11/11 08:36:32;;;;;;;11.77;1.58;;;;;;;;;;5060495;28;20052;-61
2023/11/11 08:38:58;;;;;;;9.32;1.75;;;;;;;;;;5065436;28;20353;-61
2023/11/11 08:41:25;;;;;;;13.18;1.40;;;;;;;;;;5064575;28;20063;-61
2023/11/11 08:43:51;;;;;;;12.10;1.58;;;;;;;;;;5061846;28;20056;-61
2023/11/11 08:46:17;;;;;;;9.02;1.20;;;;;;;;;;5055574;28;20143;-62
2023/11/11 08:48:43;;;;;;;9.90;1.40;;;;;;;;;;5049914;28;20084;-61
2023/11/11 08:51:13;;;;;;;6.15;1.02;;;;;;;;;;5054214;28;20052;-61
2023/11/11 08:53:39;;;;;;;5.80;0.93;;;;;;;;;;5058142;28;20033;-61
2023/11/11 08:56:06;;;;;;;9.93;1.00;;;;;;;;;;5052580;28;20434;-61
2023/11/11 08:58:32;;;;;;;8.70;1.30;;;;;;;;;;5061144;28;20086;-61
2023/11/11 09:00:59;;;;;;;12.00;1.45;;;;;;;;;;5067529;28;20132;-61
2023/11/11 09:03:27;;;;;;;5.65;0.82;;;;;;;;;;5048831;28;20183;-62
2023/11/11 09:05:53;;;;;;;6.03;1.15;;;;;;;;;;5048718;28;20052;-61
2023/11/11 09:08:20;;;;;;;10.32;1.30;;;;;;;;;;5054584;28;20442;-61
2023/11/11 09:10:46;;;;;;;5.35;1.02;;;;;;;;;;5062370;28;20040;-61
2023/11/11 09:13:13;;;;;;;5.50;1.20;;;;;;;;;;5054714;28;20037;-61
2023/11/11 09:15:40;;;;;;;14.50;1.10;;;;;;;;;;5043106;28;20057;-62
2023/11/11 09:18:06;;;;;;;13.43;1.20;;;;;;;;;;5065472;28;20155;-61
2023/11/11 09:20:32;;;;;;;13.85;1.88;;;;;;;;;;5055458;28;20077;-60
2023/11/11 09:22:59;;;;;;;6.85;1.27;;;;;;;;;;5059984;28;20036;-65
2023/11/11 09:25:25;;;;;;;7.03;1.00;;;;;;;;;;5065913;28;20050;-60
2023/11/11 09:27:53;;;;;;;13.80;1.83;;;;;;;;;;5060508;28;20081;-60
2023/11/11 09:30:22;;;;;;;8.05;1.23;;;;;;;;;;5053812;28;20056;-66
2023/11/11 09:32:51;;;;;;;9.18;1.52;;;;;;;;;;5040275;28;20045;-60
2023/11/11 09:35:17;;;;;;;8.45;1.65;;;;;;;;;;5054786;28;20059;-60
2023/11/11 09:37:44;;;;;;;15.20;1.13;;;;;;;;;;5069789;28;20081;-60
2023/11/11 09:40:11;;;;;;;8.77;1.80;;;;;;;;;;5059290;28;20103;-61
2023/11/11 09:42:37;;;;;;;8.50;1.58;;;;;;;;;;5066888;28;20044;-60
2023/11/11 09:45:07;;;;;;;10.60;1.40;;;;;;;;;;5048030;28;20045;-61
2023/11/11 09:47:33;;;;;;;10.73;1.67;;;;;;;;;;5047246;28;20040;-61
2023/11/11 09:50:00;;;;;;;11.65;1.75;;;;;;;;;;5041176;28;20124;-61
2023/11/11 09:52:30;;;;;;;11.93;1.38;;;;;;;;;;5031147;28;20033;-61
2023/11/11 09:54:58;;;;;;;14.52;1.98;;;;;;;;;;5050145;28;20049;-61
2023/11/11 09:57:25;;;;;;;11.38;1.77;;;;;;;;;;5045769;28;20126;-61
2023/11/11 09:59:52;;;;;;;11.68;2.13;;;;;;;;;;5040747;28;20049;-61
2023/11/11 10:02:18;;;;;;;5.93;1.10;;;;;;;;;;5042765;28;20048;-61
2023/11/11 10:04:44;;;;;;;14.15;1.83;;;;;;;;;;5044562;28;20042;-61
2023/11/11 10:07:12;;;;;;;11.98;1.33;;;;;;;;;;5048900;28;20532;-65
2023/11/11 10:09:39;;;;;;;15.80;1.75;;;;;;;;;;5018517;28;20045;-68
2023/11/11 10:12:05;;;;;;;13.15;1.65;;;;;;;;;;5030000;28;20049;-61
2023/11/11 10:14:32;;;;;;;11.65;1.70;;;;;;;;;;5048688;28;20056;-61
2023/11/11 10:17:03;;;;;;;11.18;1.60;;;;;;;;;;5048296;28;20041;-61
2023/11/11 10:19:31;;;;;;;9.02;1.58;;;;;;;;;;5050648;28;20120;-61
2023/11/11 10:21:57;;;;;;;6.10;1.00;;;;;;;;;;5049547;28;20489;-61
2023/11/11 10:24:27;;;;;;;4.68;0.80;;;;;;;;;;5049648;28;20044;-61
2023/11/11 10:26:54;;;;;;;5.07;1.00;;;;;;;;;;5049445;28;20117;-61
2023/11/11 10:29:20;;;;;;;4.97;0.82;;;;;;;;;;5048904;28;20045;-60
2023/11/11 10:31:48;;;;;;;4.55;0.82;;;;;;;;;;5036007;28;20079;-61
2023/11/11 10:34:14;;;;;;;6.70;1.10;;;;;;;;;;5051026;28;20072;-61
2023/11/11 10:36:41;;;;;;;3.92;0.95;;;;;;;;;;5069976;28;20063;-61
2023/11/11 10:39:11;;;;;;;5.55;1.52;;;;;;;;;;5062781;28;20045;-61
2023/11/11 10:41:38;;;;;;;6.13;0.85;;;;;;;;;;5045526;28;20132;-61
2023/11/11 10:44:07;;;;;;;6.03;0.90;;;;;;;;;;5049793;28;20466;-61
2023/11/11 10:46:35;;;;;;;7.65;1.45;;;;;;;;;;5070272;28;20496;-61
2023/11/11 10:49:03;;;;;;;5.70;0.70;;;;;;;;;;5073562;28;20048;-61
2023/11/11 10:51:30;;;;;;;6.13;0.70;;;;;;;;;;5063088;28;20037;-61
2023/11/11 10:53:57;;;;;;;7.13;1.10;;;;;;;;;;5064424;28;20053;-61
2023/11/11 10:56:24;;;;;;;5.95;0.90;;;;;;;;;;5057037;28;20525;-61
2023/11/11 10:58:52;;;;;;;7.45;1.20;;;;;;;;;;5070332;28;20041;-62
2023/11/11 11:01:18;;;;;;;4.57;1.02;;;;;;;;;;5065779;28;20082;-61
2023/11/11 11:03:45;;;;;;;6.40;1.10;;;;;;;;;;5058313;28;20101;-61
2023/11/11 11:06:19;;;;;;;5.45;0.85;;;;;;;;;;5072817;28;20131;-61
2023/11/11 11:08:57;;;;;;;4.28;0.98;;;;;;;;;;5064136;28;20041;-61
2023/11/11 11:11:33;;;;;;;4.65;0.88;;;;;;;;;;5068671;28;20082;-61
2023/11/11 11:14:08;;;;;;;7.28;0.98;;;;;;;;;;5073196;28;20468;-61
2023/11/11 11:16:37;;;;;;;9.18;0.80;;;;;;;;;;5072636;28;20045;-61
2023/11/11 11:19:03;;;;;;;8.13;0.88;;;;;;;;;;5060879;28;20126;-61
2023/11/11 11:21:29;;;;;;;6.28;0.77;;;;;;;;;;5062298;28;20044;-61
2023/11/11 11:23:56;;;;;;;7.10;0.75;;;;;;;;;;5049148;28;20086;-61
2023/11/11 11:26:29;;;;;;;4.53;1.35;;;;;;;;;;5072706;28;20059;-61
2023/11/11 11:29:12;;;;;;;6.77;1.03;;;;;;;;;;5051965;28;20072;-61
2023/11/11 11:31:56;;;;;;;5.28;0.88;;;;;;;;;;5065551;28;20056;-61
2023/11/11 11:34:23;;;;;;;14.05;1.38;;;;;;;;;;5058323;28;20041;-61
2023/11/11 11:36:54;;;;;;;7.63;0.77;;;;;;;;;;5062807;28;20121;-61
2023/11/11 11:39:24;;;;;;;7.43;0.98;;;;;;;;;;5072524;28;20123;-61
2023/11/11 11:41:50;;;;;;;9.30;1.50;;;;;;;;;;5072442;28;20040;-61
2023/11/11 11:44:20;;;;;;;8.50;1.45;;;;;;;;;;5044607;28;20073;-61
2023/11/11 11:46:46;;;;;;;6.60;1.45;;;;;;;;;;5059586;28;20101;-61
2023/11/11 11:49:12;;;;;;;7.22;1.42;;;;;;;;;;5072062;28;20386;-61
2023/11/11 11:51:51;;;;;;;9.88;2.08;;;;;;;;;;5055883;28;20127;-61
2023/11/11 11:54:17;;;;;;;7.22;1.38;;;;;;;;;;5054703;28;20056;-61
2023/11/11 11:56:44;;;;;;;6.20;1.33;;;;;;;;;;5047092;28;20058;-61
2023/11/11 11:59:15;;;;;;;7.10;0.98;;;;;;;;;;5060008;28;20060;-61
2023/11/11 12:01:41;;;;;;;9.45;1.38;;;;;;;;;;5065441;28;20119;-61
2023/11/11 12:04:08;;;;;;;6.70;1.70;;;;;;;;;;5062826;28;20044;-71
2023/11/11 12:06:38;;;;;;;7.60;1.08;;;;;;;;;;5053048;28;20036;-67
2023/11/11 12:09:09;;;;;;;5.72;0.93;;;;;;;;;;5062111;28;20471;-62
2023/11/11 12:11:36;;;;;;;8.32;1.10;;;;;;;;;;5056371;28;20123;-61
2023/11/11 12:14:05;;;;;;;10.27;1.65;;;;;;;;;;5055575;28;20520;-61
2023/11/11 12:16:42;;;;;;;7.35;1.10;;;;;;;;;;5052587;28;20052;-61
2023/11/11 12:19:09;;;;;;;5.93;1.17;;;;;;;;;;5069327;28;20052;-61
2023/11/11 12:21:36;;;;;;;5.63;1.10;;;;;;;;;;5052891;28;20123;-60
2023/11/11 12:24:03;;;;;;;8.23;1.02;;;;;;;;;;5071418;28;20040;-60
2023/11/11 12:26:29;;;;;;;7.07;1.02;;;;;;;;;;5071075;28;20041;-60
2023/11/11 12:28:57;;;;;;;8.13;0.90;;;;;;;;;;5068864;28;20400;-60
2023/11/11 12:31:23;;;;;;;7.85;1.13;;;;;;;;;;5071259;28;20119;-60
2023/11/11 12:33:52;;;;;;;7.57;1.05;;;;;;;;;;5050308;28;20048;-60
2023/11/11 12:36:18;;;;;;;8.02;0.98;;;;;;;;;;5071472;28;20083;-60
2023/11/11 12:38:46;;;;;;;6.68;1.15;;;;;;;;;;5071236;28;20094;-60
2023/11/11 12:41:14;;;;;;;9.25;1.20;;;;;;;;;;5070559;28;20040;-60
2023/11/11 12:43:40;;;;;;;7.22;0.80;;;;;;;;;;5065131;28;20055;-60
2023/11/11 12:46:15;;;;;;;7.53;1.05;;;;;;;;;;5063629;28;20144;-60
2023/11/11 12:48:42;;;;;;;9.80;1.00;;;;;;;;;;5062084;28;20132;-60
2023/11/11 12:51:26;;;;;;;6.32;1.10;;;;;;;;;;5070844;28;20079;-60
2023/11/11 12:53:53;;;;;;;9.10;1.20;;;;;;;;;;5070754;28;20051;-60
2023/11/11 12:56:20;;;;;;;5.05;1.10;;;;;;;;;;5070963;28;20052;-60
2023/11/11 12:58:47;;;;;;;7.55;1.13;;;;;;;;;;5063687;28;20045;-60
2023/11/11 13:01:23;;;;;;;4.78;1.08;;;;;;;;;;5053447;28;20470;-60
2023/11/11 13:03:50;;;;;;;6.07;0.57;;;;;;;;;;5057619;28;20040;-61
2023/11/11 13:06:17;;;;;;;4.07;0.90;;;;;;;;;;5064992;28;20052;-61
2023/11/11 13:08:50;;;;;;;5.55;1.10;;;;;;;;;;5048865;28;20142;-61
2023/11/11 13:11:16;;;;;;;4.95;0.80;;;;;;;;;;5046839;28;20088;-61
2023/11/11 13:13:43;;;;;;;8.80;0.98;;;;;;;;;;5038331;28;20048;-61
2023/11/11 13:16:10;;;;;;;3.63;0.80;;;;;;;;;;5051411;28;20041;-61
2023/11/11 13:18:36;;;;;;;6.53;1.08;;;;;;;;;;5066631;28;20047;-61
2023/11/11 13:21:08;;;;;;;5.07;0.82;;;;;;;;;;5054396;28;20033;-61
2023/11/11 13:23:34;;;;;;;7.00;0.80;;;;;;;;;;5045596;28;20472;-61
2023/11/11 13:26:00;;;;;;;7.80;0.90;;;;;;;;;;5058650;28;20048;-61
2023/11/11 13:28:30;;;;;;;5.20;0.70;;;;;;;;;;5063189;28;20049;-61
2023/11/11 13:30:57;;;;;;;4.93;1.05;;;;;;;;;;5060489;28;20404;-61
2023/11/11 13:33:24;;;;;;;3.03;0.90;;;;;;;;;;5051584;28;20115;-61
2023/11/11 13:35:53;;;;;;;5.70;0.77;;;;;;;;;;5062537;28;20055;-61
2023/11/11 13:38:20;;;;;;;7.18;0.80;;;;;;;;;;5046873;28;20128;-61
2023/11/11 13:40:49;;;;;;;10.95;1.17;;;;;;;;;;5049308;28;20045;-61
2023/11/11 13:43:16;;;;;;;6.72;1.25;;;;;;;;;;5059316;28;20045;-61
2023/11/11 13:45:43;;;;;;;4.35;0.80;;;;;;;;;;5047769;28;20218;-61
2023/11/11 13:48:09;;;;;;;2.72;0.75;;;;;;;;;;5060311;28;20032;-61
2023/11/11 13:50:36;;;;;;;5.40;0.93;;;;;;;;;;5058266;28;20052;-62
2023/11/11 13:53:04;;;;;;;4.47;0.90;;;;;;;;;;5059965;28;20056;-61
2023/11/11 13:55:37;;;;;;;4.75;0.90;;;;;;;;;;5066125;28;20389;-61
2023/11/11 13:58:03;;;;;;;6.32;0.90;;;;;;;;;;5062288;28;20456;-61
2023/11/11 14:00:29;;;;;;;2.40;0.88;;;;;;;;;;5051599;28;20494;-61
2023/11/11 14:03:01;;;;;;;6.88;0.95;;;;;;;;;;5054681;28;20037;-61
2023/11/11 14:05:28;;;;;;;5.75;0.82;;;;;;;;;;5049857;28;20041;-61
2023/11/11 14:07:57;;;;;;;6.35;0.93;;;;;;;;;;5054877;28;20443;-61
2023/11/11 14:10:26;;;;;;;5.32;1.10;;;;;;;;;;5062175;28;20124;-61
2023/11/11 14:12:53;;;;;;;8.32;1.20;;;;;;;;;;5033884;28;20045;-61
2023/11/11 14:15:21;;;;;;;8.15;0.95;;;;;;;;;;5054427;28;20049;-62
2023/11/11 14:17:49;;;;;;;3.83;0.70;;;;;;;;;;5052609;28;20052;-61
2023/11/11 14:20:15;;;;;;;5.25;0.90;;;;;;;;;;5052376;28;20127;-61
2023/11/11 14:22:42;;;;;;;4.25;1.05;;;;;;;;;;5063624;28;20052;-61
2023/11/11 14:25:09;;;;;;;5.13;1.10;;;;;;;;;;5058535;28;20401;-61
2023/11/11 14:27:39;;;;;;;4.32;1.02;;;;;;;;;;5074022;28;20044;-61
2023/11/11 14:30:09;;;;;;;5.57;1.02;;;;;;;;;;5058872;28;20092;-61
2023/11/11 14:32:36;;;;;;;4.30;1.13;;;;;;;;;;5064230;28;20068;-62
2023/11/11 14:35:03;;;;;;;7.53;1.67;;;;;;;;;;5044133;28;20057;-61
2023/11/11 14:37:31;;;;;;;11.40;1.77;;;;;;;;;;5059068;28;20515;-61
2023/11/11 14:39:57;;;;;;;12.15;1.80;;;;;;;;;;5047384;28;20051;-68